Details From KPNA - Ralph Wenz Fld
To SVMI - Caracas Simon Bolivar Intl
Flight Number -
Tags Decoded
Created
Modified
Stats Distance 2,961 nm / 5,484 km
Max Altitude 0 ft / 0 m
Waypoints 4
Social Downloads 2
Likes 0
Share VATSIM

Download

Looking for another format? Having issues loading an existing format? Contact us
Advertisement - Login to hide

Notes

Decoded

Route

PNA KOTUL TORIM MIQ

ID Type Via Altitude Latitude Longitude Leg Dist Tot Dist Heading (true) Name
O PNA NDB - 0 ft / 0 m 42.79708˚ -109.80347˚ - 0 nm - -
KOTUL FIX - 0 ft / 0 m 10.77808˚ -67.74036˚ 2914 nm 2914 nm 119° / 139° -
TORIM FIX - 0 ft / 0 m 10.68142˚ -67.57369˚ 11 nm 2926 nm 121° / 121° -
O MIQ VOR - 0 ft / 0 m 10.60947˚ -66.98967˚ 34 nm 2960 nm 97° / 97° MAIQUETIA VOR-DME

Altitude Profile

Advertisement - Login to hide

Weather


0- 5 10 15 20 25 30 35+ Temperature / ° C

Clouds and Precipitation
Forecast for 2017-12-13 18:00 UTC. Updated 2 hours ago

Ground ~20,000 ft ~40,000 ft Winds

KPNA

Details ICAO KPNA
Name RALPH WENZ FLD
Region United States
Timezone America/Denver (UTC-7.0)
Stats Elevation 7,086 ft / 2,160 m (AMSL)
Location 42.797390° -109.811036°
Runways 1
Magnetic Variation 10.879° E

METAR

KPNA 131835Z AUTO 27004KT 10SM OVC075 03/M14 A3017 RMK AO2

Decode

TAF

TAF KPNA 131730Z 1318/1418 31006KT P6SM SCT110 BKN200 FM132000 31008KT P6SM VCSH SCT020 BKN040 FM132200 31009KT 2SM -SHSN BKN022 FM140200 31010KT P6SM SCT028 OVC040 FM140900 31008KT P6SM SCT040 AMD LTD TO CLD VIS AND WIND

Decode

Departure Runways

ID Width Length Bearing (true) Bearing (mag) Surface Threshold Offset Overrun Length
11 98 ft / 30 m 8,878 ft / 2,706 m 123.69° 112.81° Asphalt 0 ft / 0 m 0 ft / 0 m
29 98 ft / 30 m 8,878 ft / 2,706 m 303.71° 292.83° Asphalt 0 ft / 0 m 0 ft / 0 m

SVMI

Details ICAO SVMI (CCS)
Name Caracas Simon Bolivar Intl
Region Venezuela
Timezone America/Caracas (UTC-4.0)
Stats Elevation 235 ft / 72 m (AMSL)
Location 10.603119° -66.990585°
Runways 2
Magnetic Variation 12.288° W

METAR

SVMI 131800Z 36007KT 9999 SCT016 30/23 Q1013

Decode

TAF

TAF SVMI 131000Z 1312/1412 00000KT 9999 FEW016 TX30/19Z TN21/09Z BECMG 1314/1318 05008KT 9999 SCT016

Decode

Destination Runways

ID Width Length Bearing (true) Bearing (mag) Surface Threshold Offset Overrun Length
09 145 ft / 44 m 9,825 ft / 2,995 m 75.92° 88.21° Asphalt 0 ft / 0 m 0 ft / 0 m
10 148 ft / 45 m 11,472 ft / 3,497 m 88.14° 100.43° Asphalt 0 ft / 0 m 200 ft / 61 m
27 145 ft / 44 m 9,825 ft / 2,995 m 255.92° 268.21° Asphalt 0 ft / 0 m 0 ft / 0 m
28 148 ft / 45 m 11,472 ft / 3,497 m 268.15° 280.44° Asphalt 0 ft / 0 m 200 ft / 61 m

Approach Navaids

Runway Type Ident Frequency Range Bearing (true) Bearing (mag) Slope Elevation
10 Localiser IMIQ 110.10 MHz 18 nm / 33 km 87.90° 100.19° - 235 ft / 72 m (AMSL)
10 Glidescope IMIQ 110.10 MHz 10 nm / 19 km 88.14° 100.43° 3.00° 235 ft / 72 m (AMSL)
10 DME IMIQ 110.10 MHz 18 nm / 33 km - - - 235 ft / 72 m (AMSL)